createdAt,value
2022-12-25T00:00:57.174Z,23.98
2022-12-25T00:03:26.322Z,24.85
2022-12-25T00:05:54.088Z,24.92
2022-12-25T00:08:21.712Z,25.33
2022-12-25T00:10:58.109Z,24.77
2022-12-25T00:13:25.832Z,25.63
2022-12-25T00:15:53.597Z,26.23
2022-12-25T00:18:21.410Z,26.67
2022-12-25T00:20:59.127Z,26.17
2022-12-25T00:23:26.925Z,25.60
2022-12-25T00:25:54.754Z,25.85
2022-12-25T00:28:23.074Z,26.52
2022-12-25T00:30:50.881Z,26.42
2022-12-25T00:33:18.563Z,26.08
2022-12-25T00:35:59.487Z,26.17
2022-12-25T00:38:27.483Z,26.33
2022-12-25T00:40:55.257Z,26.88
2022-12-25T00:43:22.939Z,26.25
2022-12-25T00:45:58.345Z,25.77
2022-12-25T00:48:26.529Z,25.58
2022-12-25T00:50:55.281Z,26.95
2022-12-25T00:53:24.839Z,26.65
2022-12-25T00:55:53.502Z,27.40
2022-12-25T00:58:21.306Z,28.05
2022-12-25T01:00:49.907Z,27.90
2022-12-25T01:03:18.118Z,26.83
2022-12-25T01:05:46.008Z,28.90
2022-12-25T01:08:13.558Z,27.52
2022-12-25T01:10:41.491Z,27.90
2022-12-25T01:13:09.109Z,27.67
2022-12-25T01:15:37.914Z,27.90
2022-12-25T01:18:07.874Z,28.70
2022-12-25T01:20:36.349Z,28.25
2022-12-25T01:23:03.999Z,27.83
2022-12-25T01:25:31.658Z,28.33
2022-12-25T01:28:00.634Z,28.30
2022-12-25T01:30:28.319Z,28.27
2022-12-25T01:32:55.861Z,29.08
2022-12-25T01:35:23.429Z,29.17
2022-12-25T01:37:51.481Z,30.63
2022-12-25T01:40:19.279Z,29.52
2022-12-25T01:42:46.908Z,30.73
2022-12-25T01:45:37.630Z,31.13
2022-12-25T01:48:08.468Z,30.90
2022-12-25T01:50:37.360Z,32.45
2022-12-25T01:53:05.402Z,31.83
2022-12-25T01:55:33.846Z,31.35
2022-12-25T01:58:01.730Z,31.48
2022-12-25T02:00:29.338Z,31.52
2022-12-25T02:02:58.567Z,31.65
2022-12-25T02:05:28.540Z,31.40
2022-12-25T02:07:56.863Z,32.47
2022-12-25T02:10:24.742Z,33.22
2022-12-25T02:12:52.445Z,33.08
2022-12-25T02:15:21.680Z,34.08
2022-12-25T02:17:56.668Z,33.30
2022-12-25T02:20:41.053Z,33.45
2022-12-25T02:23:29.946Z,34.07
2022-12-25T02:26:12.188Z,34.58
2022-12-25T02:28:46.066Z,33.00
2022-12-25T02:31:17.417Z,32.65
2022-12-25T02:34:04.066Z,33.47
2022-12-25T02:36:36.563Z,31.70
2022-12-25T02:39:23.465Z,31.27
2022-12-25T02:41:54.266Z,29.85
2022-12-25T02:44:42.428Z,29.55
2022-12-25T02:47:28.400Z,29.77
2022-12-25T02:50:15.843Z,29.55
2022-12-25T02:53:02.192Z,29.60
2022-12-25T02:55:51.222Z,29.95
2022-12-25T02:58:38.592Z,29.95
2022-12-25T03:01:27.643Z,29.13
2022-12-25T03:04:14.756Z,28.20
2022-12-25T03:06:46.674Z,29.13
2022-12-25T03:09:35.000Z,28.10
2022-12-25T03:12:05.799Z,25.98
2022-12-25T03:14:51.081Z,27.70
2022-12-25T03:17:20.018Z,28.15
2022-12-25T03:20:05.322Z,27.43
2022-12-25T03:22:51.205Z,27.08
2022-12-25T03:25:36.955Z,26.75
2022-12-25T03:28:06.268Z,27.20
2022-12-25T03:30:55.913Z,28.08
2022-12-25T03:33:46.936Z,27.75
2022-12-25T03:36:18.230Z,28.70
2022-12-25T03:39:07.277Z,30.42
2022-12-25T03:41:56.635Z,30.08
2022-12-25T03:44:56.539Z,31.73
2022-12-25T03:47:45.065Z,31.55
2022-12-25T03:50:35.436Z,31.25
2022-12-25T03:53:23.380Z,32.67
2022-12-25T03:56:08.681Z,32.30
2022-12-25T03:58:54.128Z,31.77
2022-12-25T04:01:39.294Z,31.83
2022-12-25T04:04:24.613Z,31.67
2022-12-25T04:07:11.440Z,31.42
2022-12-25T04:09:56.813Z,31.35
2022-12-25T04:12:42.216Z,31.17
2022-12-25T04:15:33.938Z,30.57
2022-12-25T04:18:19.187Z,31.15
2022-12-25T04:21:04.203Z,30.60
2022-12-25T04:23:50.694Z,30.83
2022-12-25T04:26:35.677Z,30.42
2022-12-25T04:29:20.871Z,33.08
2022-12-25T04:32:06.098Z,33.23
2022-12-25T04:34:51.397Z,32.70
2022-12-25T04:37:19.350Z,33.40
2022-12-25T04:39:48.311Z,32.80
2022-12-25T04:42:16.652Z,33.33
2022-12-25T04:44:44.248Z,34.40
2022-12-25T04:47:11.990Z,33.25
2022-12-25T04:49:39.643Z,33.80
2022-12-25T04:52:07.215Z,33.80
2022-12-25T04:54:34.789Z,34.33
2022-12-25T04:57:03.719Z,32.65
2022-12-25T04:59:31.317Z,34.35
2022-12-25T05:01:58.996Z,32.88
2022-12-25T05:04:26.632Z,33.35
2022-12-25T05:06:54.230Z,33.13
2022-12-25T05:09:21.880Z,33.75
2022-12-25T05:11:49.498Z,33.50
2022-12-25T05:14:18.626Z,33.38
2022-12-25T05:16:46.344Z,34.40
2022-12-25T05:19:13.925Z,33.95
2022-12-25T05:21:41.526Z,33.67
2022-12-25T05:24:09.168Z,34.67
2022-12-25T05:26:36.738Z,35.28
2022-12-25T05:29:04.281Z,34.20
2022-12-25T05:31:33.267Z,36.00
2022-12-25T05:34:00.958Z,34.70
2022-12-25T05:36:29.235Z,36.20
2022-12-25T05:38:56.818Z,35.30
2022-12-25T05:41:26.806Z,34.97
2022-12-25T05:43:56.625Z,35.10
2022-12-25T05:46:24.269Z,34.83
2022-12-25T05:48:53.164Z,34.78
2022-12-25T05:51:21.059Z,34.78
2022-12-25T05:53:48.765Z,35.08
2022-12-25T05:56:16.373Z,34.90
2022-12-25T05:58:44.232Z,35.37
2022-12-25T06:01:12.835Z,34.53
2022-12-25T06:03:40.575Z,35.53
2022-12-25T06:06:10.045Z,35.17
2022-12-25T06:08:37.687Z,35.77
2022-12-25T06:11:06.274Z,35.37
2022-12-25T06:13:34.441Z,36.25
2022-12-25T06:16:04.828Z,35.72
2022-12-25T06:18:32.595Z,36.75
2022-12-25T06:21:00.131Z,37.42
2022-12-25T06:23:29.118Z,34.88
2022-12-25T06:25:56.707Z,36.42
2022-12-25T06:28:24.497Z,36.05
2022-12-25T06:30:52.285Z,35.67
2022-12-25T06:33:19.879Z,36.30
2022-12-25T06:35:47.518Z,34.80
2022-12-25T06:38:15.094Z,34.67
2022-12-25T06:40:43.989Z,35.38
2022-12-25T06:43:11.629Z,35.70
2022-12-25T06:45:39.234Z,35.67
2022-12-25T06:48:07.012Z,36.75
2022-12-25T06:50:34.585Z,37.13
2022-12-25T06:53:02.221Z,36.20
2022-12-25T06:55:29.891Z,36.38
2022-12-25T06:57:58.989Z,37.85
2022-12-25T07:00:26.685Z,38.60
2022-12-25T07:02:54.403Z,37.92
2022-12-25T07:05:22.211Z,38.63
2022-12-25T07:07:49.804Z,39.67
2022-12-25T07:10:17.573Z,39.70
2022-12-25T07:12:45.165Z,39.85
2022-12-25T07:15:14.115Z,39.33
2022-12-25T07:17:41.699Z,39.08
2022-12-25T07:20:10.296Z,39.45
2022-12-25T07:22:37.916Z,39.33
2022-12-25T07:25:07.565Z,38.30
2022-12-25T07:27:35.328Z,37.50
2022-12-25T07:30:03.030Z,37.00
2022-12-25T07:32:33.091Z,38.20
2022-12-25T07:35:00.719Z,37.00
2022-12-25T07:37:28.324Z,37.60
2022-12-25T07:39:55.872Z,36.30
2022-12-25T07:42:25.312Z,36.35
2022-12-25T07:44:53.119Z,35.45
2022-12-25T07:47:20.661Z,36.15
2022-12-25T07:49:49.599Z,34.80
2022-12-25T07:52:17.157Z,35.67
2022-12-25T07:54:44.759Z,35.78
2022-12-25T07:57:12.378Z,34.42
2022-12-25T07:59:39.963Z,33.10
2022-12-25T08:02:07.901Z,33.17
2022-12-25T08:04:35.630Z,34.70
2022-12-25T08:07:04.597Z,33.27
2022-12-25T08:09:32.140Z,34.75
2022-12-25T08:11:59.674Z,34.17
2022-12-25T08:14:27.589Z,35.10
2022-12-25T08:16:55.242Z,34.38
2022-12-25T08:19:22.887Z,33.65
2022-12-25T08:21:50.491Z,34.15
2022-12-25T08:24:19.401Z,34.25
2022-12-25T08:26:47.037Z,33.83
2022-12-25T08:29:14.739Z,34.42
2022-12-25T08:31:46.319Z,33.85
2022-12-25T08:34:14.737Z,34.03
2022-12-25T08:36:42.485Z,34.08
2022-12-25T08:39:10.080Z,33.67
2022-12-25T08:41:39.080Z,33.72
2022-12-25T08:44:07.317Z,35.05
2022-12-25T08:46:35.117Z,33.83
2022-12-25T08:49:02.890Z,33.00
2022-12-25T08:51:30.483Z,33.50
2022-12-25T08:54:00.759Z,33.80
2022-12-25T08:56:28.677Z,34.83
2022-12-25T08:58:57.665Z,34.00
2022-12-25T09:01:25.412Z,33.85
2022-12-25T09:03:53.106Z,35.10
2022-12-25T09:06:20.733Z,34.83
2022-12-25T09:08:49.827Z,34.42
2022-12-25T09:11:18.820Z,34.10
2022-12-25T09:13:47.161Z,34.07
2022-12-25T09:16:18.732Z,35.55
2022-12-25T09:18:46.419Z,35.03
2022-12-25T09:21:15.235Z,35.22
2022-12-25T09:23:43.342Z,34.25
2022-12-25T09:26:13.902Z,33.88
2022-12-25T09:28:48.462Z,33.93
2022-12-25T09:31:19.885Z,33.45
2022-12-25T09:33:47.647Z,33.40
2022-12-25T09:36:15.344Z,32.35
2022-12-25T09:38:42.979Z,33.35
2022-12-25T09:41:15.984Z,32.65
2022-12-25T09:43:48.243Z,31.80
2022-12-25T09:46:20.070Z,32.45
2022-12-25T09:48:56.544Z,31.77
2022-12-25T09:51:24.756Z,30.95
2022-12-25T09:53:56.594Z,31.60
2022-12-25T09:56:25.953Z,32.13
2022-12-25T09:58:53.987Z,29.92
2022-12-25T10:01:35.455Z,30.10
2022-12-25T10:04:13.215Z,29.43
2022-12-25T10:06:47.884Z,32.45
2022-12-25T10:09:26.564Z,28.25
2022-12-25T10:12:03.692Z,28.95
2022-12-25T10:14:36.103Z,28.35
2022-12-25T10:17:17.958Z,29.63
2022-12-25T10:19:48.881Z,27.42
2022-12-25T10:22:20.358Z,25.60
2022-12-25T10:24:50.852Z,24.98
2022-12-25T10:27:21.336Z,23.77
2022-12-25T10:29:52.906Z,23.73
2022-12-25T10:32:22.117Z,22.25
2022-12-25T10:34:49.795Z,22.95
2022-12-25T10:37:17.806Z,21.95
2022-12-25T10:39:46.896Z,22.30
2022-12-25T10:42:29.763Z,22.73
2022-12-25T10:45:01.980Z,20.08
2022-12-25T10:47:32.899Z,19.77
2022-12-25T10:50:01.180Z,19.85
2022-12-25T10:52:29.816Z,19.97
2022-12-25T10:54:57.462Z,20.87
2022-12-25T10:57:26.449Z,19.90
2022-12-25T10:59:56.894Z,20.05
2022-12-25T11:02:26.608Z,18.93
2022-12-25T11:05:03.092Z,19.02
2022-12-25T11:07:31.719Z,17.83
2022-12-25T11:10:05.219Z,17.70
2022-12-25T11:12:35.943Z,17.73
2022-12-25T11:15:07.020Z,17.67
2022-12-25T11:17:36.689Z,17.75
2022-12-25T11:20:17.820Z,19.17
2022-12-25T11:22:47.945Z,18.80
2022-12-25T11:25:23.325Z,19.43
2022-12-25T11:27:58.619Z,19.02
2022-12-25T11:30:26.271Z,19.45
2022-12-25T11:32:56.121Z,20.33
2022-12-25T11:35:29.264Z,21.67
2022-12-25T11:37:56.827Z,20.57
2022-12-25T11:40:27.692Z,20.75
2022-12-25T11:43:01.333Z,21.40
2022-12-25T11:45:36.548Z,20.35
2022-12-25T11:48:08.589Z,21.27
2022-12-25T11:50:39.700Z,20.67
2022-12-25T11:53:12.227Z,20.55
2022-12-25T11:55:42.571Z,20.42
2022-12-25T11:58:17.008Z,20.05
2022-12-25T12:00:45.669Z,20.35
2022-12-25T12:03:17.960Z,20.40
2022-12-25T12:05:49.111Z,21.30
2022-12-25T12:08:16.787Z,20.52
2022-12-25T12:10:58.122Z,20.45
2022-12-25T12:13:37.880Z,21.10
2022-12-25T12:16:07.243Z,20.30
2022-12-25T12:18:35.309Z,21.02
2022-12-25T12:21:05.829Z,21.65
2022-12-25T12:23:36.512Z,21.33
2022-12-25T12:26:04.875Z,21.52
2022-12-25T12:28:39.842Z,21.15
2022-12-25T12:31:08.207Z,21.85
2022-12-25T12:33:38.709Z,21.17
2022-12-25T12:36:11.799Z,21.65
2022-12-25T12:38:40.906Z,21.95
2022-12-25T12:41:09.516Z,21.08
2022-12-25T12:43:38.908Z,20.88
2022-12-25T12:46:14.469Z,20.60
2022-12-25T12:48:44.922Z,20.70
2022-12-25T12:51:15.454Z,20.87
2022-12-25T12:53:43.711Z,20.10
2022-12-25T12:56:13.669Z,19.70
2022-12-25T12:58:46.169Z,18.98
2022-12-25T13:01:23.559Z,19.05
2022-12-25T13:04:05.100Z,19.55
2022-12-25T13:06:41.554Z,19.58
2022-12-25T13:09:24.907Z,18.50
2022-12-25T13:11:52.957Z,19.27
2022-12-25T13:14:22.673Z,18.93
2022-12-25T13:16:52.993Z,19.07
2022-12-25T13:19:22.856Z,19.65
2022-12-25T13:21:56.520Z,19.13
2022-12-25T13:24:25.718Z,19.63
2022-12-25T13:26:53.313Z,18.77
2022-12-25T13:29:31.264Z,19.25
2022-12-25T13:31:59.756Z,19.20
2022-12-25T13:34:31.541Z,18.70
2022-12-25T13:37:01.351Z,19.85
2022-12-25T13:39:29.692Z,20.15
2022-12-25T13:42:06.381Z,21.15
2022-12-25T13:44:42.768Z,21.75
2022-12-25T13:47:17.990Z,22.42
2022-12-25T13:49:46.044Z,24.88
2022-12-25T13:52:17.207Z,25.23
2022-12-25T13:54:59.236Z,25.45
2022-12-25T13:57:31.534Z,25.20
2022-12-25T13:59:59.254Z,26.42
2022-12-25T14:02:31.689Z,27.88
2022-12-25T14:04:59.365Z,28.95
2022-12-25T14:07:28.567Z,28.47
2022-12-25T14:09:59.386Z,29.17
2022-12-25T14:12:29.417Z,29.17
2022-12-25T14:14:58.296Z,29.27
2022-12-25T14:17:26.377Z,29.77
2022-12-25T14:20:05.710Z,28.58
2022-12-25T14:22:38.474Z,28.52
2022-12-25T14:25:15.264Z,29.08
2022-12-25T14:27:49.350Z,27.15
2022-12-25T14:30:17.759Z,29.47
2022-12-25T14:32:47.392Z,27.45
2022-12-25T14:35:21.317Z,27.02
2022-12-25T14:37:56.385Z,26.42
2022-12-25T14:40:26.684Z,25.45
2022-12-25T14:42:58.411Z,25.63
2022-12-25T14:45:31.776Z,26.17
2022-12-25T14:48:02.860Z,26.88
2022-12-25T14:50:32.574Z,26.52
2022-12-25T14:53:01.703Z,25.15
2022-12-25T14:55:30.538Z,27.15
2022-12-25T14:57:59.902Z,26.38
2022-12-25T15:00:31.656Z,26.92
2022-12-25T15:03:00.572Z,26.33
2022-12-25T15:05:36.117Z,26.57
2022-12-25T15:08:17.662Z,26.13
2022-12-25T15:11:02.592Z,24.52
2022-12-25T15:13:31.920Z,24.65
2022-12-25T15:16:02.360Z,22.92
2022-12-25T15:18:33.211Z,24.15
2022-12-25T15:21:00.842Z,23.52
2022-12-25T15:23:29.739Z,23.70
2022-12-25T15:25:57.299Z,23.70
2022-12-25T15:28:24.911Z,24.33
2022-12-25T15:30:52.521Z,24.70
2022-12-25T15:33:20.199Z,24.95
2022-12-25T15:35:47.865Z,25.42
2022-12-25T15:38:15.457Z,26.15
2022-12-25T15:40:44.427Z,27.15
2022-12-25T15:43:39.582Z,26.67
2022-12-25T15:46:02.880Z,26.80
2022-12-25T15:48:30.451Z,26.15
2022-12-25T15:50:58.044Z,27.07
2022-12-25T15:53:26.942Z,27.38
2022-12-25T15:55:55.975Z,27.50
2022-12-25T15:58:23.557Z,27.58
2022-12-25T16:00:51.673Z,26.30
2022-12-25T16:03:19.291Z,28.05
2022-12-25T16:05:46.882Z,27.83
2022-12-25T16:08:14.427Z,27.52
2022-12-25T16:10:41.980Z,26.45
2022-12-25T16:13:10.942Z,26.80
2022-12-25T16:15:38.612Z,26.38
2022-12-25T16:18:06.509Z,28.40
2022-12-25T16:20:36.041Z,27.17
2022-12-25T16:23:03.652Z,28.40
2022-12-25T16:25:31.320Z,28.17
2022-12-25T16:27:58.965Z,29.08
2022-12-25T16:30:27.943Z,28.20
2022-12-25T16:32:55.753Z,28.17
2022-12-25T16:35:23.396Z,29.20
2022-12-25T16:37:50.954Z,30.15
2022-12-25T16:40:18.772Z,29.37
2022-12-25T16:42:46.387Z,29.30
2022-12-25T16:45:14.239Z,29.20
2022-12-25T16:47:43.197Z,29.98
2022-12-25T16:50:11.551Z,30.05
2022-12-25T16:52:39.176Z,29.90
2022-12-25T16:55:07.416Z,29.42
2022-12-25T16:57:35.119Z,30.25
2022-12-25T17:00:02.872Z,31.67
2022-12-25T17:02:30.595Z,33.15
2022-12-25T17:05:00.475Z,35.58
2022-12-25T17:07:28.214Z,38.05
2022-12-25T17:09:57.104Z,40.60
2022-12-25T17:12:24.659Z,36.95
2022-12-25T17:14:52.907Z,36.20
2022-12-25T17:17:20.438Z,37.20
2022-12-25T17:19:48.014Z,40.90
2022-12-25T17:22:16.965Z,42.53
2022-12-25T17:24:44.563Z,42.85
2022-12-25T17:27:12.188Z,43.72
2022-12-25T17:29:40.050Z,41.80
2022-12-25T17:32:08.428Z,40.50
2022-12-25T17:34:36.624Z,38.80
2022-12-25T17:37:04.288Z,39.15
2022-12-25T17:39:33.417Z,39.30
2022-12-25T17:42:01.054Z,38.97
2022-12-25T17:44:28.640Z,40.10
2022-12-25T17:46:56.304Z,38.92
2022-12-25T17:49:24.068Z,38.17
2022-12-25T17:51:51.752Z,37.95
2022-12-25T17:54:19.386Z,37.80
2022-12-25T17:56:49.437Z,36.20
2022-12-25T17:59:19.162Z,38.17
2022-12-25T18:01:49.122Z,36.13
2022-12-25T18:04:17.104Z,36.42
2022-12-25T18:06:44.759Z,36.75
2022-12-25T18:09:13.355Z,35.88
2022-12-25T18:11:42.717Z,35.55
2022-12-25T18:14:15.432Z,36.78
2022-12-25T18:16:44.753Z,36.97
2022-12-25T18:19:13.459Z,38.28
2022-12-25T18:21:41.117Z,37.35
2022-12-25T18:24:09.350Z,37.53
2022-12-25T18:26:37.264Z,37.55
2022-12-25T18:29:05.033Z,37.28
2022-12-25T18:31:34.020Z,37.50
2022-12-25T18:34:01.619Z,38.15
2022-12-25T18:36:30.235Z,37.42
2022-12-25T18:38:58.584Z,36.97
2022-12-25T18:41:27.943Z,37.20
2022-12-25T18:43:56.161Z,38.72
2022-12-25T18:46:25.320Z,37.08
2022-12-25T18:48:55.114Z,37.30
2022-12-25T18:51:22.932Z,35.35
2022-12-25T18:53:50.942Z,35.40
2022-12-25T18:56:18.914Z,36.63
2022-12-25T18:58:47.159Z,35.53
2022-12-25T19:01:17.056Z,35.13
2022-12-25T19:03:46.153Z,35.38
2022-12-25T19:06:19.137Z,34.40
2022-12-25T19:08:46.884Z,35.58
2022-12-25T19:11:14.633Z,35.28
2022-12-25T19:13:42.225Z,33.17
2022-12-25T19:16:09.932Z,33.90
2022-12-25T19:18:38.303Z,32.30
2022-12-25T19:21:08.366Z,33.33
2022-12-25T19:23:38.352Z,30.77
2022-12-25T19:26:06.466Z,29.33
2022-12-25T19:28:34.108Z,32.05
2022-12-25T19:31:02.430Z,33.33
2022-12-25T19:33:31.870Z,32.20
2022-12-25T19:36:00.558Z,32.40
2022-12-25T19:38:28.193Z,32.17
2022-12-25T19:41:03.095Z,31.80
2022-12-25T19:43:31.999Z,32.75
2022-12-25T19:45:59.897Z,33.05
2022-12-25T19:48:27.667Z,35.00
2022-12-25T19:50:55.583Z,31.40
2022-12-25T19:53:24.099Z,31.88
2022-12-25T19:55:52.264Z,32.38
2022-12-25T19:58:21.638Z,32.25
2022-12-25T20:00:58.099Z,33.67
2022-12-25T20:03:26.033Z,33.05
2022-12-25T20:05:53.738Z,32.40
2022-12-25T20:08:21.337Z,32.88
2022-12-25T20:10:49.185Z,32.45
2022-12-25T20:13:17.011Z,31.77
2022-12-25T20:15:46.196Z,30.25
2022-12-25T20:18:13.966Z,29.08
2022-12-25T20:20:42.831Z,30.55
2022-12-25T20:23:10.738Z,28.35
2022-12-25T20:25:40.426Z,27.08
2022-12-25T20:28:08.144Z,27.48
2022-12-25T20:30:39.281Z,26.13
2022-12-25T20:33:08.326Z,27.25
2022-12-25T20:35:35.987Z,26.48
2022-12-25T20:38:03.623Z,24.45
2022-12-25T20:40:34.653Z,23.33
2022-12-25T20:43:14.635Z,23.08
2022-12-25T20:45:42.575Z,19.63
2022-12-25T20:48:11.559Z,20.02
2022-12-25T20:50:39.117Z,20.83
2022-12-25T20:53:06.757Z,19.27
2022-12-25T20:55:34.413Z,19.08
2022-12-25T20:58:01.949Z,18.48
2022-12-25T21:00:29.567Z,17.25
2022-12-25T21:02:57.338Z,18.88
2022-12-25T21:05:26.394Z,18.95
2022-12-25T21:07:53.995Z,20.52
2022-12-25T21:10:21.621Z,20.50
2022-12-25T21:12:49.269Z,21.90
2022-12-25T21:15:16.988Z,19.58
2022-12-25T21:17:44.679Z,22.38
2022-12-25T21:20:12.553Z,22.38
2022-12-25T21:22:42.027Z,24.17
2022-12-25T21:25:10.544Z,22.08
2022-12-25T21:27:38.161Z,23.27
2022-12-25T21:30:14.502Z,21.95
2022-12-25T21:33:00.922Z,23.75
2022-12-25T21:35:28.774Z,22.77
2022-12-25T21:37:57.728Z,22.98
2022-12-25T21:40:25.306Z,23.05
2022-12-25T21:42:53.109Z,23.70
2022-12-25T21:45:20.674Z,25.13
2022-12-25T21:47:59.803Z,23.48
2022-12-25T21:50:45.847Z,23.25
2022-12-25T21:53:17.957Z,26.15
2022-12-25T21:55:56.889Z,26.13
2022-12-25T21:58:25.028Z,24.50
2022-12-25T22:00:52.721Z,23.73
2022-12-25T22:03:20.399Z,26.67
2022-12-25T22:06:05.639Z,24.95
2022-12-25T22:08:34.713Z,27.90
2022-12-25T22:11:04.254Z,25.73
2022-12-25T22:13:49.391Z,26.73
2022-12-25T22:16:34.550Z,26.30
2022-12-25T22:19:19.982Z,24.83
2022-12-25T22:21:47.628Z,25.13
2022-12-25T22:24:16.616Z,23.87
2022-12-25T22:26:45.861Z,25.27
2022-12-25T22:29:13.462Z,25.67
2022-12-25T22:31:46.642Z,26.25
2022-12-25T22:34:16.259Z,28.90
2022-12-25T22:36:44.078Z,27.42
2022-12-25T22:39:11.743Z,27.90
2022-12-25T22:41:40.699Z,27.13
2022-12-25T22:44:17.572Z,28.77
2022-12-25T22:46:45.903Z,29.05
2022-12-25T22:49:15.474Z,29.25
2022-12-25T22:51:43.227Z,28.15
2022-12-25T22:54:13.028Z,27.42
2022-12-25T22:56:42.027Z,28.70
2022-12-25T22:59:10.199Z,29.25
2022-12-25T23:01:38.085Z,28.75
2022-12-25T23:04:06.432Z,27.17
2022-12-25T23:06:34.206Z,28.13
2022-12-25T23:09:02.030Z,28.55
2022-12-25T23:11:29.584Z,27.70
2022-12-25T23:14:16.290Z,25.93
2022-12-25T23:16:43.883Z,21.90
2022-12-25T23:19:41.403Z,21.37
2022-12-25T23:22:28.315Z,19.33
2022-12-25T23:25:13.649Z,18.08
2022-12-25T23:27:41.308Z,18.05
2022-12-25T23:30:11.497Z,17.85
2022-12-25T23:32:39.481Z,17.05
2022-12-25T23:35:08.321Z,15.98
2022-12-25T23:37:35.965Z,16.73
2022-12-25T23:40:03.560Z,16.85
2022-12-25T23:42:31.185Z,16.63
2022-12-25T23:44:58.789Z,17.13
2022-12-25T23:47:27.790Z,18.75
2022-12-25T23:49:55.501Z,18.52
2022-12-25T23:52:23.145Z,18.88
2022-12-25T23:54:50.815Z,20.15
2022-12-25T23:57:18.452Z,20.45
2022-12-25T23:59:46.198Z,21.13
